Latest Weather Observations for Esperance

IDW60801

Issued at 6:43 pm WST Wednesday 29 June 2022 (issued every 10 minutes, with the page automatically refreshed every 10 minutes)

About weather observations | Map of weather stations | Latest weather observations for WA | Other Formats
Station Details ID: 009789 Name: ESPERANCE Lat: -33.83 Lon: 121.89 Height: 25.0 m
Data from the previous 72 hours. | See also: Recent months at Esperance
Date/Time
WST
Temp
°C
App
Temp
°C
Dew
Point
°C
Rel
Hum
%
Delta-T
°C
Wind Press
QNH
hPa
Press
MSL
hPa
Rain since
9am
mm
Dir  Spd
km/h
Gust
km/h
Spd
kts
Gust
kts
29/06:30pm 14.3 9.4 6.9 61 3.6 SE 22 33 12 18 1032.7 1032.7 0.0
29/06:00pm 14.5 9.2 6.8 60 3.7 SE 24 33 13 18 1032.4 1032.4 0.0
29/05:30pm 14.7 9.8 7.0 60 3.8 SE 22 32 12 17 1032.2 1032.2 0.0
29/05:00pm 14.7 10.0 7.7 63 3.4 SE 22 32 12 17 1031.9 1031.9 0.0
29/04:30pm 14.8 9.5 8.5 66 3.2 SE 26 35 14 19 1031.8 1031.8 0.0
29/04:00pm 15.1 9.9 7.4 60 3.8 SSE 24 33 13 18 1031.6 1031.6 0.0
29/03:30pm 15.7 10.9 7.5 58 4.1 SSE 22 33 12 18 1031.5 1031.5 0.0
29/03:00pm 15.6 10.6 8.1 61 3.7 SE 24 32 13 17 1031.6 1031.6 0.0
29/02:30pm 15.5 11.5 8.3 62 3.6 SE 19 26 10 14 1031.7 1031.7 0.0
29/02:00pm 15.0 11.1 9.6 70 2.8 SE 20 30 11 16 1031.6 1031.6 0.0
29/01:30pm 15.6 12.0 10.6 72 2.6 SE 20 26 11 14 1031.4 1031.4 0.0
29/01:00pm 14.0 10.2 11.0 82 1.6 SSE 22 32 12 17 1031.7 1031.7 0.0
29/12:30pm 15.2 11.6 10.6 74 2.4 SSE 20 32 11 17 1031.7 1031.7 0.0
29/12:05pm 14.5 13.2 12.4 87 1.1 SE 11 15 6 8 1031.9 1031.9 0.0
29/12:00pm 13.6 11.7 11.7 88 1.0 SE 13 19 7 10 1032.0 1032.0 0.0
29/11:47am 13.9 11.2 11.8 87 1.1 SSE 17 28 9 15 1032.2 1032.2 0.0
29/11:41am 14.6 12.3 11.6 82 1.6 SSE 15 20 8 11 1032.2 1032.2 0.0
29/11:30am 14.3 12.4 11.8 85 1.3 S 13 24 7 13 1032.3 1032.3 0.0
29/11:26am 14.3 12.2 11.3 82 1.6 S 13 24 7 13 1032.3 1032.3 0.0
29/11:00am 15.1 12.0 11.5 79 1.9 SE 19 26 10 14 1032.5 1032.5 0.0
29/10:30am 14.6 11.2 10.4 76 2.2 SE 19 28 10 15 1032.9 1032.9 0.0
29/10:00am 15.4 12.4 10.8 74 2.4 S 17 26 9 14 1033.1 1033.1 0.0
29/09:30am 14.8 11.8 9.4 70 2.8 SSE 15 20 8 11 1033.0 1033.0 0.0
29/09:00am 14.5 12.4 9.9 74 2.4 SSW 11 19 6 10 1032.7 1032.7 0.4
29/08:30am 14.7 11.9 7.0 60 3.8 SSE 11 15 6 8 1032.4 1032.4 0.4
29/08:00am 14.4 11.2 6.7 60 3.7 S 13 20 7 11 1032.1 1032.1 0.4
29/07:30am 13.7 11.5 7.9 68 2.9 SSW 9 17 5 9 1031.8 1031.8 0.4
29/07:00am 13.8 9.6 7.6 66 3.0 S 19 28 10 15 1031.5 1031.5 0.4
29/06:30am 13.5 11.1 6.8 64 3.2 S 9 13 5 7 1031.3 1031.3 0.4
29/06:00am 13.7 10.4 6.6 62 3.4 SSE 13 17 7 9 1031.2 1031.2 0.4
29/05:30am 13.1 10.6 6.7 65 3.1 S 9 15 5 8 1031.0 1031.0 0.4
29/05:00am 12.9 10.6 7.6 70 2.6 S 9 13 5 7 1030.7 1030.7 0.4
29/04:30am 13.1 10.3 6.9 66 3.0 S 11 17 6 9 1030.8 1030.8 0.4
29/04:00am 13.1 9.8 6.2 63 3.3 SSW 13 19 7 10 1030.8 1030.8 0.4
29/03:30am 13.2 10.4 6.8 65 3.1 S 11 19 6 10 1030.9 1030.9 0.4
29/03:00am 12.8 9.4 7.5 70 2.6 S 15 20 8 11 1030.9 1030.9 0.4
29/02:30am 13.1 9.5 6.7 65 3.1 S 15 22 8 12 1031.0 1031.0 0.4
29/02:00am 12.0 10.2 8.1 77 1.9 W 7 9 4 5 1031.2 1031.2 0.4
29/01:30am 12.6 10.0 7.9 73 2.3 SSW 11 17 6 9 1031.1 1031.1 0.4
29/01:00am 12.9 9.8 7.4 69 2.7 S 13 19 7 10 1030.9 1030.9 0.4
29/12:30am 11.8 10.3 9.0 83 1.4 SSW 7 9 4 5 1030.9 1030.9 0.4
29/12:05am 11.7 10.2 9.3 85 1.2 WSW 7 13 4 7 1030.9 1030.9 0.4
29/12:00am 11.6 9.8 9.3 86 1.1 SW 9 13 5 7 1030.9 1030.9 0.4
 
Date/Time
WST
Temp
°C
App
Temp
°C
Dew
Point
°C
Rel
Hum
%
Delta-T
°C
Wind Press
QNH
hPa
Press
MSL
hPa
Rain since
9am
mm
Dir  Spd
km/h
Gust
km/h
Spd
kts
Gust
kts
28/11:49pm 11.6 8.9 8.8 83 1.4 SW 13 20 7 11 1031.1 1031.1 0.4
28/11:30pm 12.2 9.4 8.5 78 1.8 S 13 20 7 11 1030.9 1030.9 0.4
28/11:00pm 12.9 9.4 7.1 68 2.8 S 15 20 8 11 1030.9 1030.9 0.4
28/10:30pm 13.4 10.6 5.3 58 3.8 SSW 9 15 5 8 1030.9 1030.9 0.4
28/10:00pm 13.7 9.4 5.1 56 4.0 S 17 24 9 13 1031.0 1031.0 0.4
28/09:30pm 13.8 9.5 5.4 57 3.9 SSE 17 22 9 12 1030.6 1030.6 0.4
28/09:00pm 13.8 9.3 6.2 60 3.6 S 19 24 10 13 1030.5 1030.5 0.4
28/08:30pm 13.8 9.6 5.7 58 3.8 S 17 24 9 13 1030.5 1030.5 0.4
28/08:00pm 13.7 9.5 5.6 58 3.8 S 17 24 9 13 1030.5 1030.5 0.4
28/07:30pm 13.4 9.6 6.0 61 3.5 S 15 26 8 14 1030.3 1030.3 0.4
28/07:00pm 13.8 10.2 6.9 63 3.3 S 15 26 8 14 1030.1 1030.1 0.4
28/06:30pm 12.8 11.2 8.9 77 2.0 SW 7 15 4 8 1030.2 1030.2 0.4
28/06:00pm 12.8 10.9 9.1 78 1.9 SW 9 15 5 8 1029.9 1029.9 0.4
28/05:30pm 12.6 9.9 8.9 78 1.9 SSW 13 20 7 11 1029.8 1029.8 0.4
28/05:24pm 12.6 9.1 8.9 78 1.9 SSW 17 32 9 17 1029.7 1029.7 0.4
28/05:04pm 12.5 9.3 10.0 85 1.3 SW 17 26 9 14 1029.6 1029.6 0.4
28/05:00pm 13.3 10.7 9.5 78 1.9 SW 13 26 7 14 1029.4 1029.4 0.0
28/04:30pm 13.4 10.5 8.3 71 2.5 SW 13 19 7 10 1029.1 1029.1 0.0
28/04:00pm 14.3 10.8 8.7 69 2.8 SSW 17 26 9 14 1028.8 1028.8 0.0
28/03:30pm 14.7 10.9 7.7 63 3.5 SSW 17 24 9 13 1028.7 1028.7 0.0
28/03:00pm 14.8 10.6 8.3 65 3.2 SSW 20 32 11 17 1028.5 1028.5 0.0
28/02:30pm 14.9 11.3 8.2 64 3.4 SSW 17 28 9 15 1028.4 1028.4 0.0
28/02:00pm 15.2 11.0 5.7 53 4.5 SSW 17 30 9 16 1028.3 1028.3 0.0
28/01:30pm 15.4 11.3 7.7 60 3.8 SSW 19 32 10 17 1028.2 1028.2 0.0
28/01:00pm 15.5 11.5 6.8 56 4.2 S 17 24 9 13 1028.5 1028.5 0.0
28/12:30pm 15.4 11.3 6.4 55 4.4 SSW 17 26 9 14 1028.9 1028.9 0.0
28/12:00pm 15.1 10.4 6.1 55 4.3 S 20 30 11 16 1029.1 1029.1 0.0
28/11:30am 15.4 10.9 6.9 57 4.2 SSW 20 32 11 17 1029.4 1029.4 0.0
28/11:00am 15.3 10.7 5.5 52 4.6 SSW 19 32 10 17 1029.5 1029.5 0.0
28/10:30am 15.2 10.8 6.7 57 4.1 SSW 19 30 10 16 1029.5 1029.5 0.0
28/10:00am 14.6 10.8 7.6 63 3.4 SW 17 32 9 17 1029.6 1029.6 0.0
28/09:30am 15.3 10.3 6.6 56 4.2 S 22 32 12 17 1029.2 1029.2 0.0
28/09:00am 15.3 10.6 6.1 54 4.4 S 20 33 11 18 1028.8 1028.8 0.4
28/08:30am 14.8 10.3 7.1 60 3.8 SSW 20 35 11 19 1028.7 1028.7 0.4
28/08:00am 14.7 10.5 7.5 62 3.5 SSW 19 30 10 16 1028.5 1028.5 0.4
28/07:30am 14.5 10.8 7.8 64 3.3 SSW 17 24 9 13 1028.3 1028.3 0.4
28/07:00am 14.3 10.4 7.1 62 3.5 SSW 17 26 9 14 1028.0 1028.0 0.4
28/06:30am 14.2 10.1 7.9 66 3.1 SSW 19 35 10 19 1027.8 1027.8 0.4
28/06:00am 14.3 10.4 8.7 69 2.8 SSW 19 30 10 16 1027.5 1027.5 0.4
28/05:30am 14.1 10.8 9.5 74 2.4 SSW 17 28 9 15 1027.4 1027.4 0.4
28/05:00am 14.2 11.1 9.0 71 2.6 SSW 15 24 8 13 1027.1 1027.1 0.4
28/04:30am 14.3 11.1 8.3 67 3.0 SW 15 22 8 12 1027.1 1027.1 0.4
28/04:00am 14.1 11.3 8.7 70 2.7 SW 13 22 7 12 1026.9 1026.9 0.4
28/03:30am 14.0 11.7 10.4 79 1.9 SSW 13 24 7 13 1026.9 1026.9 0.4
28/03:00am 14.2 11.5 8.8 70 2.7 SW 13 22 7 12 1027.0 1027.0 0.4
28/02:30am 14.4 11.0 9.0 70 2.7 SW 17 26 9 14 1027.0 1027.0 0.4
28/02:00am 14.3 10.7 8.5 68 2.9 SW 17 26 9 14 1027.0 1027.0 0.4
28/01:32am 14.2 11.1 8.8 70 2.7 WSW 15 26 8 14 1026.9 1026.9 0.4
28/01:30am 14.1 11.0 8.7 70 2.7 WSW 15 26 8 14 1026.9 1026.9 0.4
28/01:20am 14.2 11.3 9.6 74 2.4 WSW 15 24 8 13 1026.9 1026.9 0.4
28/01:00am 14.3 11.6 8.9 70 2.7 WSW 13 20 7 11 1026.7 1026.7 0.2
28/12:30am 13.0 11.5 10.5 85 1.3 WNW 9 13 5 7 1026.6 1026.6 0.2
28/12:00am 13.2 11.1 11.3 88 1.0 WNW 13 22 7 12 1026.6 1026.6 0.2
 
Date/Time
WST
Temp
°C
App
Temp
°C
Dew
Point
°C
Rel
Hum
%
Delta-T
°C
Wind Press
QNH
hPa
Press
MSL
hPa
Rain since
9am
mm
Dir  Spd
km/h
Gust
km/h
Spd
kts
Gust
kts
27/11:30pm 13.1 10.6 11.2 88 1.0 WNW 15 20 8 11 1026.7 1026.7 0.2
27/11:05pm 12.9 10.8 11.3 90 0.8 WNW 13 17 7 9 1026.7 1026.7 0.2
27/11:00pm 12.8 10.3 11.2 90 0.8 WNW 15 19 8 10 1026.7 1026.7 0.2
27/10:30pm 12.7 10.1 10.8 88 1.0 WNW 15 19 8 10 1026.8 1026.8 0.2
27/10:29pm 12.8 10.3 10.9 88 1.0 WNW 15 19 8 10 1026.8 1026.8 0.2
27/10:00pm 12.9 11.5 10.8 87 1.1 WNW 9 15 5 8 1026.6 1026.6 0.0
27/09:37pm 13.9 11.4 10.9 82 1.6 SW 15 24 8 13 1027.0 1027.0 0.0
27/09:30pm 14.3 12.1 10.9 80 1.8 WSW 13 22 7 12 1026.8 1026.8 0.0
27/09:00pm 14.5 12.3 10.9 79 1.9 W 13 19 7 10 1026.7 1026.7 0.0
27/08:30pm 14.2 11.3 11.0 81 1.7 WSW 17 28 9 15 1026.8 1026.8 0.0
27/08:00pm 15.6 12.1 10.2 70 2.8 SW 19 32 10 17 1026.5 1026.5 0.0
27/07:30pm 15.3 12.1 9.9 70 2.8 SW 17 30 9 16 1026.1 1026.1 0.0
27/07:00pm 14.7 10.6 11.3 80 1.8 SW 24 39 13 21 1025.9 1025.9 0.0
27/06:46pm 15.5 11.5 11.7 78 2.1 SW 24 39 13 21 1025.6 1025.6 0.0
27/06:30pm 15.7 12.9 12.6 82 1.7 SW 19 32 10 17 1025.3 1025.3 0.0
27/06:00pm 16.7 13.8 14.0 84 1.5 SSW 22 33 12 18 1024.8 1024.8 0.0
27/05:48pm 17.0 13.9 14.6 86 1.4 SSW 24 37 13 20 1024.5 1024.5 0.0
27/05:30pm 18.1 14.9 14.2 78 2.2 SSW 24 46 13 25 1024.1 1024.1 0.0
27/05:00pm 19.7 17.4 9.0 50 5.6 WNW 11 17 6 9 1023.2 1023.2 0.0
27/04:30pm 20.3 17.1 8.6 47 6.1 WNW 15 20 8 11 1023.1 1023.1 0.0
27/04:00pm 21.7 17.7 8.2 42 7.1 WNW 19 28 10 15 1022.8 1022.8 0.0
27/03:30pm 22.4 19.1 9.6 44 6.9 WNW 17 28 9 15 1022.6 1022.6 0.0
27/03:00pm 22.3 17.1 8.8 42 7.2 NW 26 39 14 21 1022.2 1022.2 0.0
27/02:30pm 22.5 17.0 9.0 42 7.2 NW 28 37 15 20 1022.3 1022.3 0.0
27/02:00pm 22.3 16.2 8.1 40 7.4 NW 30 41 16 22 1022.5 1022.5 0.0
27/01:30pm 22.2 16.1 8.3 41 7.3 NW 30 43 16 23 1022.8 1022.8 0.0
27/01:00pm 21.8 15.9 7.6 40 7.3 NNW 28 39 15 21 1023.1 1023.1 0.0
27/12:30pm 21.2 15.0 7.8 42 7.0 NW 30 39 16 21 1023.8 1023.8 0.0
27/12:00pm 20.5 14.3 7.8 44 6.5 NNW 30 44 16 24 1024.1 1024.1 0.0
27/11:30am 19.8 14.7 7.5 45 6.3 NNW 24 33 13 18 1025.0 1025.0 0.0
27/11:00am 18.8 12.8 6.9 46 5.9 NW 28 44 15 24 1025.7 1025.7 0.0
27/10:32am 18.5 12.5 7.0 47 5.8 NNW 28 46 15 25 1026.1 1026.1 0.0
27/10:30am 18.6 12.3 7.4 48 5.7 NNW 30 46 16 25 1026.2 1026.2 0.0
27/10:27am 18.2 12.1 6.7 47 5.7 NNW 28 46 15 25 1026.3 1026.3 0.0
27/10:00am 17.6 11.6 7.1 50 5.2 NNW 28 43 15 23 1026.7 1026.7 0.0
27/09:30am 16.3 9.1 5.9 50 5.0 NNW 33 46 18 25 1026.5 1026.5 0.0
27/09:12am 15.6 9.3 5.8 52 4.7 NNW 28 46 15 25 1026.6 1026.6 0.0
27/09:00am 14.9 9.0 6.0 55 4.2 NNW 26 39 14 21 1026.8 1026.8 0.0
27/08:30am 13.6 7.6 5.3 57 3.9 NNW 26 41 14 22 1026.9 1026.9 0.0
27/08:00am 12.4 7.1 4.9 60 3.4 N 22 35 12 19 1027.0 1027.0 0.0
27/07:30am 11.7 6.9 4.7 62 3.2 N 19 30 10 16 1027.5 1027.5 0.0
27/07:00am 10.3 7.4 4.5 67 2.6 NNE 9 15 5 8 1027.3 1027.3 0.0
27/06:30am 9.9 6.6 4.5 69 2.4 N 11 20 6 11 1027.1 1027.1 0.0
27/06:00am 9.6 7.1 4.6 71 2.2 ENE 7 11 4 6 1026.9 1026.9 0.0
27/05:30am 9.3 6.7 4.3 71 2.2 NNE 7 11 4 6 1026.9 1026.9 0.0
27/05:00am 9.5 6.5 4.3 70 2.3 N 9 13 5 7 1026.9 1026.9 0.0
27/04:30am 9.4 5.7 4.6 72 2.1 N 13 20 7 11 1026.8 1026.8 0.0
27/04:00am 9.6 4.6 4.6 71 2.2 N 20 28 11 15 1026.6 1026.6 0.0
27/03:30am 10.2 5.2 4.8 69 2.4 N 20 26 11 14 1026.5 1026.5 0.0
27/03:00am 10.4 5.1 4.8 68 2.5 N 22 30 12 16 1026.8 1026.8 0.0
27/02:30am 10.3 5.4 4.9 69 2.4 N 20 26 11 14 1027.3 1027.3 0.0
27/02:00am 10.5 5.7 4.9 68 2.5 N 19 24 10 13 1027.5 1027.5 0.0
27/01:30am 10.6 5.2 4.7 67 2.7 N 22 28 12 15 1027.2 1027.2 0.0
27/01:00am 10.2 5.2 4.6 68 2.5 N 20 28 11 15 1027.3 1027.3 0.0
27/12:30am 10.1 5.1 4.5 68 2.5 N 20 24 11 13 1027.4 1027.4 0.0
27/12:00am 10.3 5.3 4.5 67 2.6 N 20 28 11 15 1027.7 1027.7 0.0
 
Date/Time
WST
Temp
°C
App
Temp
°C
Dew
Point
°C
Rel
Hum
%
Delta-T
°C
Wind Press
QNH
hPa
Press
MSL
hPa
Rain since
9am
mm
Dir  Spd
km/h
Gust
km/h
Spd
kts
Gust
kts
26/11:30pm 10.9 5.9 4.6 65 2.8 N 20 32 11 17 1027.9 1027.9 0.0
26/11:00pm 9.5 5.9 5.1 74 2.0 N 13 17 7 9 1028.1 1028.1 0.0
26/10:30pm 9.8 5.4 5.0 72 2.2 NNE 17 24 9 13 1028.3 1028.3 0.0
26/10:00pm 9.7 5.7 5.1 73 2.1 NNE 15 15 8 8 1028.4 1028.4 0.0
26/09:30pm 10.4 6.5 5.2 70 2.4 NNE 15 17 8 9 1028.5 1028.5 0.0
26/09:00pm 10.3 6.9 5.9 74 2.0 NNE 13 17 7 9 1028.6 1028.6 0.0
26/08:30pm 10.6 8.0 6.0 73 2.1 NNE 9 13 5 7 1028.5 1028.5 0.0
26/08:00pm 10.8 7.9 6.7 76 1.9 NNE 11 15 6 8 1028.6 1028.6 0.0
26/07:30pm 11.4 8.6 6.9 74 2.1 N 11 11 6 6 1028.4 1028.4 0.0
26/07:00pm 12.7 10.2 6.7 67 2.9 N 9 11 5 6 1028.3 1028.3 0.0

Other formats

Comma delimited format used in spreadsheet applications
http://www.bom.gov.au/fwo/IDW60801/IDW60801.94638.axf

JavaScript Object Notation format (JSON) in row-major order
http://www.bom.gov.au/fwo/IDW60801/IDW60801.94638.json

Data quality

Most of these data are generated automatically and are frequently updated. Quality checks on data are not normally performed. It is possible for incorrect values to appear. Refer to information at About Latest Weather Observations and please check the disclaimer before using these data.